Terminal Aerodrome Forecast
Issued by NWS Grand Forks, ND

Home | Current Version | Previous Version | Graphics & Text | Print | Product List | Glossary On
Versions: 1 2 3 4 5 6 7 8 9 10 11 12 13 14 15 16 17 18 19
429
FTUS43 KFGF 041733
TAFGFK
TAF
KGFK 041733Z 0418/0518 33009KT P6SM BKN035
      TEMPO 0418/0420 6SM -SN
     FM042000 29007KT P6SM BKN040
     FM050000 18006KT P6SM BKN120
     FM051200 28004KT 4SM BR OVC025=

USA.gov is the U.S. government's official web portal to all federal, state and local government web resources and services.